sensor_id;sensor_type;location;lat;lon;timestamp;temperature;humidity
23813;DHT22;12087;45.190;5.688;2023-09-08T00:00:24;22.30;99.90
23813;DHT22;12087;45.190;5.688;2023-09-08T00:05:46;22.30;99.90
23813;DHT22;12087;45.190;5.688;2023-09-08T00:11:08;22.30;99.90
23813;DHT22;12087;45.190;5.688;2023-09-08T00:16:32;22.30;99.90
23813;DHT22;12087;45.190;5.688;2023-09-08T00:21:54;22.20;99.90
23813;DHT22;12087;45.190;5.688;2023-09-08T00:27:17;22.10;99.90
23813;DHT22;12087;45.190;5.688;2023-09-08T00:32:40;22.10;99.90
23813;DHT22;12087;45.190;5.688;2023-09-08T00:38:03;22.00;99.90
23813;DHT22;12087;45.190;5.688;2023-09-08T00:43:25;22.00;99.90
23813;DHT22;12087;45.190;5.688;2023-09-08T00:48:49;22.00;99.90
23813;DHT22;12087;45.190;5.688;2023-09-08T00:54:11;22.00;99.90
23813;DHT22;12087;45.190;5.688;2023-09-08T00:59:33;22.00;99.90
23813;DHT22;12087;45.190;5.688;2023-09-08T01:04:58;21.90;99.90
23813;DHT22;12087;45.190;5.688;2023-09-08T01:10:21;21.90;99.90
23813;DHT22;12087;45.190;5.688;2023-09-08T01:15:44;21.80;99.90
23813;DHT22;12087;45.190;5.688;2023-09-08T01:21:28;21.70;99.90
23813;DHT22;12087;45.190;5.688;2023-09-08T01:26:57;21.70;99.90
23813;DHT22;12087;45.190;5.688;2023-09-08T01:32:20;21.70;99.90
23813;DHT22;12087;45.190;5.688;2023-09-08T01:37:44;21.70;99.90
23813;DHT22;12087;45.190;5.688;2023-09-08T01:43:08;21.60;99.90
23813;DHT22;12087;45.190;5.688;2023-09-08T01:48:31;21.60;99.90
23813;DHT22;12087;45.190;5.688;2023-09-08T01:53:53;21.50;99.90
23813;DHT22;12087;45.190;5.688;2023-09-08T01:59:18;21.50;99.90
23813;DHT22;12087;45.190;5.688;2023-09-08T02:04:40;21.40;99.90
23813;DHT22;12087;45.190;5.688;2023-09-08T02:10:02;21.40;99.90
23813;DHT22;12087;45.190;5.688;2023-09-08T02:15:26;21.40;99.90
23813;DHT22;12087;45.190;5.688;2023-09-08T02:20:48;21.40;99.90
23813;DHT22;12087;45.190;5.688;2023-09-08T02:26:10;21.30;99.90
23813;DHT22;12087;45.190;5.688;2023-09-08T02:31:34;21.20;99.90
23813;DHT22;12087;45.190;5.688;2023-09-08T02:36:56;21.20;99.90
23813;DHT22;12087;45.190;5.688;2023-09-08T02:42:19;21.10;99.90
23813;DHT22;12087;45.190;5.688;2023-09-08T02:47:42;21.10;99.90
23813;DHT22;12087;45.190;5.688;2023-09-08T02:53:05;21.00;99.90
23813;DHT22;12087;45.190;5.688;2023-09-08T02:58:27;21.00;99.90
23813;DHT22;12087;45.190;5.688;2023-09-08T03:03:52;21.00;99.90
23813;DHT22;12087;45.190;5.688;2023-09-08T03:09:14;21.00;99.90
23813;DHT22;12087;45.190;5.688;2023-09-08T03:14:37;21.00;99.90
23813;DHT22;12087;45.190;5.688;2023-09-08T03:20:01;20.90;99.90
23813;DHT22;12087;45.190;5.688;2023-09-08T03:25:26;20.90;99.90
23813;DHT22;12087;45.190;5.688;2023-09-08T03:30:48;20.90;99.90
23813;DHT22;12087;45.190;5.688;2023-09-08T03:36:12;20.90;99.90
23813;DHT22;12087;45.190;5.688;2023-09-08T03:41:34;20.80;99.90
23813;DHT22;12087;45.190;5.688;2023-09-08T03:46:57;20.80;99.90
23813;DHT22;12087;45.190;5.688;2023-09-08T03:52:20;20.70;99.90
23813;DHT22;12087;45.190;5.688;2023-09-08T03:57:43;20.70;99.90
23813;DHT22;12087;45.190;5.688;2023-09-08T04:03:06;20.60;99.90
23813;DHT22;12087;45.190;5.688;2023-09-08T04:08:29;20.60;99.90
23813;DHT22;12087;45.190;5.688;2023-09-08T04:13:51;20.60;99.90
23813;DHT22;12087;45.190;5.688;2023-09-08T04:19:15;20.60;99.90
23813;DHT22;12087;45.190;5.688;2023-09-08T04:24:38;20.50;99.90
23813;DHT22;12087;45.190;5.688;2023-09-08T04:30:01;20.50;99.90
23813;DHT22;12087;45.190;5.688;2023-09-08T04:35:23;20.40;99.90
23813;DHT22;12087;45.190;5.688;2023-09-08T04:40:47;20.40;99.90
23813;DHT22;12087;45.190;5.688;2023-09-08T04:46:09;20.40;99.90
23813;DHT22;12087;45.190;5.688;2023-09-08T04:51:32;20.30;99.90
23813;DHT22;12087;45.190;5.688;2023-09-08T04:56:55;20.30;99.90
23813;DHT22;12087;45.190;5.688;2023-09-08T05:02:18;20.30;99.90
23813;DHT22;12087;45.190;5.688;2023-09-08T05:07:40;20.20;99.90
23813;DHT22;12087;45.190;5.688;2023-09-08T05:13:04;20.20;99.90
23813;DHT22;12087;45.190;5.688;2023-09-08T05:18:26;20.20;99.90
23813;DHT22;12087;45.190;5.688;2023-09-08T05:23:48;20.30;99.90
23813;DHT22;12087;45.190;5.688;2023-09-08T05:29:12;20.30;99.90
23813;DHT22;12087;45.190;5.688;2023-09-08T05:34:35;20.30;99.90
23813;DHT22;12087;45.190;5.688;2023-09-08T05:39:57;20.40;99.90
23813;DHT22;12087;45.190;5.688;2023-09-08T05:45:21;20.40;99.90
23813;DHT22;12087;45.190;5.688;2023-09-08T05:50:43;20.40;99.90
23813;DHT22;12087;45.190;5.688;2023-09-08T05:56:05;20.50;99.90
23813;DHT22;12087;45.190;5.688;2023-09-08T06:01:30;20.50;99.90
23813;DHT22;12087;45.190;5.688;2023-09-08T06:06:52;20.60;99.90
23813;DHT22;12087;45.190;5.688;2023-09-08T06:12:14;20.70;99.90
23813;DHT22;12087;45.190;5.688;2023-09-08T06:17:38;20.70;99.90
23813;DHT22;12087;45.190;5.688;2023-09-08T06:23:00;20.70;99.90
23813;DHT22;12087;45.190;5.688;2023-09-08T06:28:22;20.80;99.90
23813;DHT22;12087;45.190;5.688;2023-09-08T06:33:46;20.90;99.90
23813;DHT22;12087;45.190;5.688;2023-09-08T06:39:11;21.00;99.90
23813;DHT22;12087;45.190;5.688;2023-09-08T06:44:33;21.10;99.90
23813;DHT22;12087;45.190;5.688;2023-09-08T06:49:57;21.20;99.90
23813;DHT22;12087;45.190;5.688;2023-09-08T06:55:19;21.30;99.90
23813;DHT22;12087;45.190;5.688;2023-09-08T07:00:42;21.50;99.90
23813;DHT22;12087;45.190;5.688;2023-09-08T07:06:05;21.60;99.90
23813;DHT22;12087;45.190;5.688;2023-09-08T07:11:28;21.70;99.90
23813;DHT22;12087;45.190;5.688;2023-09-08T07:16:51;21.80;99.90
23813;DHT22;12087;45.190;5.688;2023-09-08T07:22:15;21.80;99.90
23813;DHT22;12087;45.190;5.688;2023-09-08T07:27:37;22.00;99.90
23813;DHT22;12087;45.190;5.688;2023-09-08T07:32:59;22.10;99.90
23813;DHT22;12087;45.190;5.688;2023-09-08T07:38:23;22.30;99.90
23813;DHT22;12087;45.190;5.688;2023-09-08T07:43:46;22.40;99.90
23813;DHT22;12087;45.190;5.688;2023-09-08T07:49:09;22.60;99.90
23813;DHT22;12087;45.190;5.688;2023-09-08T07:54:32;22.80;99.90
23813;DHT22;12087;45.190;5.688;2023-09-08T08:00:24;22.90;99.90
23813;DHT22;12087;45.190;5.688;2023-09-08T08:05:47;23.10;99.90
23813;DHT22;12087;45.190;5.688;2023-09-08T08:11:13;23.20;99.90
23813;DHT22;12087;45.190;5.688;2023-09-08T08:16:35;23.50;99.90
23813;DHT22;12087;45.190;5.688;2023-09-08T08:21:57;23.60;99.90
23813;DHT22;12087;45.190;5.688;2023-09-08T08:27:21;23.80;99.90
23813;DHT22;12087;45.190;5.688;2023-09-08T08:32:43;23.90;99.90
23813;DHT22;12087;45.190;5.688;2023-09-08T08:38:06;24.10;99.90
23813;DHT22;12087;45.190;5.688;2023-09-08T08:43:31;24.20;99.90
23813;DHT22;12087;45.190;5.688;2023-09-08T08:48:53;24.30;99.90
23813;DHT22;12087;45.190;5.688;2023-09-08T08:54:16;24.40;99.90
23813;DHT22;12087;45.190;5.688;2023-09-08T08:59:40;24.50;99.90
23813;DHT22;12087;45.190;5.688;2023-09-08T09:05:04;24.60;99.90
23813;DHT22;12087;45.190;5.688;2023-09-08T09:10:27;24.70;99.90
23813;DHT22;12087;45.190;5.688;2023-09-08T09:15:50;24.80;99.90
23813;DHT22;12087;45.190;5.688;2023-09-08T09:21:12;24.80;99.90
23813;DHT22;12087;45.190;5.688;2023-09-08T09:26:36;24.90;99.90
23813;DHT22;12087;45.190;5.688;2023-09-08T09:38:16;25.10;99.90
23813;DHT22;12087;45.190;5.688;2023-09-08T09:43:39;25.20;99.90
23813;DHT22;12087;45.190;5.688;2023-09-08T09:49:01;25.20;99.90
23813;DHT22;12087;45.190;5.688;2023-09-08T09:54:25;25.30;99.90
23813;DHT22;12087;45.190;5.688;2023-09-08T09:59:49;25.40;99.90
23813;DHT22;12087;45.190;5.688;2023-09-08T10:05:12;25.50;99.90
23813;DHT22;12087;45.190;5.688;2023-09-08T10:10:36;25.70;99.90
23813;DHT22;12087;45.190;5.688;2023-09-08T10:16:00;25.70;99.90
23813;DHT22;12087;45.190;5.688;2023-09-08T10:21:26;25.90;99.90
23813;DHT22;12087;45.190;5.688;2023-09-08T10:26:58;26.10;99.90
23813;DHT22;12087;45.190;5.688;2023-09-08T10:32:22;26.30;99.90
23813;DHT22;12087;45.190;5.688;2023-09-08T10:37:45;26.40;99.90
23813;DHT22;12087;45.190;5.688;2023-09-08T10:43:09;26.60;99.90
23813;DHT22;12087;45.190;5.688;2023-09-08T10:48:41;26.80;99.90
23813;DHT22;12087;45.190;5.688;2023-09-08T10:54:04;27.00;99.90
23813;DHT22;12087;45.190;5.688;2023-09-08T10:59:34;27.30;99.90
23813;DHT22;12087;45.190;5.688;2023-09-08T11:04:57;27.40;99.90
23813;DHT22;12087;45.190;5.688;2023-09-08T11:10:21;27.60;97.00
23813;DHT22;12087;45.190;5.688;2023-09-08T11:15:44;27.90;95.70
23813;DHT22;12087;45.190;5.688;2023-09-08T11:21:08;28.00;96.70
23813;DHT22;12087;45.190;5.688;2023-09-08T11:26:33;28.30;94.60
23813;DHT22;12087;45.190;5.688;2023-09-08T11:31:57;28.40;94.10
23813;DHT22;12087;45.190;5.688;2023-09-08T11:37:22;28.70;94.00
23813;DHT22;12087;45.190;5.688;2023-09-08T11:42:44;29.00;92.10
23813;DHT22;12087;45.190;5.688;2023-09-08T11:48:08;29.10;92.30
23813;DHT22;12087;45.190;5.688;2023-09-08T11:53:30;29.20;93.70
23813;DHT22;12087;45.190;5.688;2023-09-08T11:58:54;29.30;91.60
23813;DHT22;12087;45.190;5.688;2023-09-08T12:04:19;29.50;90.90
23813;DHT22;12087;45.190;5.688;2023-09-08T12:09:42;29.70;90.60
23813;DHT22;12087;45.190;5.688;2023-09-08T12:15:05;29.80;90.00
23813;DHT22;12087;45.190;5.688;2023-09-08T12:20:30;29.90;89.10
23813;DHT22;12087;45.190;5.688;2023-09-08T12:25:52;30.00;89.20
23813;DHT22;12087;45.190;5.688;2023-09-08T12:31:15;30.10;88.00
23813;DHT22;12087;45.190;5.688;2023-09-08T12:36:44;30.30;86.40
23813;DHT22;12087;45.190;5.688;2023-09-08T12:42:07;30.40;87.00
23813;DHT22;12087;45.190;5.688;2023-09-08T12:47:30;30.60;83.40
23813;DHT22;12087;45.190;5.688;2023-09-08T12:52:54;30.70;82.10
23813;DHT22;12087;45.190;5.688;2023-09-08T12:58:16;30.80;82.00
23813;DHT22;12087;45.190;5.688;2023-09-08T13:03:39;31.00;82.90
23813;DHT22;12087;45.190;5.688;2023-09-08T13:09:03;31.30;78.90
23813;DHT22;12087;45.190;5.688;2023-09-08T13:14:25;31.30;78.70
23813;DHT22;12087;45.190;5.688;2023-09-08T13:19:48;31.40;77.80
23813;DHT22;12087;45.190;5.688;2023-09-08T13:25:11;31.50;76.50
23813;DHT22;12087;45.190;5.688;2023-09-08T13:30:34;31.70;75.00
23813;DHT22;12087;45.190;5.688;2023-09-08T13:35:57;31.90;74.80
23813;DHT22;12087;45.190;5.688;2023-09-08T13:41:20;32.00;73.60
23813;DHT22;12087;45.190;5.688;2023-09-08T13:46:43;32.30;75.20
23813;DHT22;12087;45.190;5.688;2023-09-08T13:52:05;32.50;74.20
23813;DHT22;12087;45.190;5.688;2023-09-08T13:57:29;32.50;74.20
23813;DHT22;12087;45.190;5.688;2023-09-08T14:02:51;32.40;72.60
23813;DHT22;12087;45.190;5.688;2023-09-08T14:08:15;32.40;74.60
23813;DHT22;12087;45.190;5.688;2023-09-08T14:13:38;32.70;74.60
23813;DHT22;12087;45.190;5.688;2023-09-08T14:19:00;32.70;72.10
23813;DHT22;12087;45.190;5.688;2023-09-08T14:24:23;32.70;72.60
23813;DHT22;12087;45.190;5.688;2023-09-08T14:29:47;32.50;74.60
23813;DHT22;12087;45.190;5.688;2023-09-08T14:35:09;32.40;74.80
23813;DHT22;12087;45.190;5.688;2023-09-08T14:40:32;32.20;75.10
23813;DHT22;12087;45.190;5.688;2023-09-08T14:45:56;32.00;74.70
23813;DHT22;12087;45.190;5.688;2023-09-08T14:51:18;31.90;76.50
23813;DHT22;12087;45.190;5.688;2023-09-08T14:56:40;31.70;75.40
23813;DHT22;12087;45.190;5.688;2023-09-08T15:02:04;31.60;77.60
23813;DHT22;12087;45.190;5.688;2023-09-08T15:07:26;31.40;77.80
23813;DHT22;12087;45.190;5.688;2023-09-08T15:12:49;31.40;78.60
23813;DHT22;12087;45.190;5.688;2023-09-08T15:18:12;31.20;77.80
23813;DHT22;12087;45.190;5.688;2023-09-08T15:23:34;31.00;78.20
23813;DHT22;12087;45.190;5.688;2023-09-08T15:28:57;31.00;77.60
23813;DHT22;12087;45.190;5.688;2023-09-08T15:34:21;30.90;79.10
23813;DHT22;12087;45.190;5.688;2023-09-08T15:39:44;30.80;77.70
23813;DHT22;12087;45.190;5.688;2023-09-08T15:45:06;30.80;78.20
23813;DHT22;12087;45.190;5.688;2023-09-08T15:50:31;30.70;78.70
23813;DHT22;12087;45.190;5.688;2023-09-08T15:55:53;30.60;81.10
23813;DHT22;12087;45.190;5.688;2023-09-08T16:01:16;30.50;79.40
23813;DHT22;12087;45.190;5.688;2023-09-08T16:06:39;30.40;79.50
23813;DHT22;12087;45.190;5.688;2023-09-08T16:12:02;30.30;79.70
23813;DHT22;12087;45.190;5.688;2023-09-08T16:17:24;30.30;80.30
23813;DHT22;12087;45.190;5.688;2023-09-08T16:22:49;30.20;80.60
23813;DHT22;12087;45.190;5.688;2023-09-08T16:28:12;30.20;81.40
23813;DHT22;12087;45.190;5.688;2023-09-08T16:33:34;30.10;80.70
23813;DHT22;12087;45.190;5.688;2023-09-08T16:38:58;29.90;80.30
23813;DHT22;12087;45.190;5.688;2023-09-08T16:44:20;29.70;82.40
23813;DHT22;12087;45.190;5.688;2023-09-08T16:49:42;29.60;83.10
23813;DHT22;12087;45.190;5.688;2023-09-08T16:55:06;29.50;83.90
23813;DHT22;12087;45.190;5.688;2023-09-08T17:00:32;29.30;84.30
23813;DHT22;12087;45.190;5.688;2023-09-08T17:05:54;29.10;83.40
23813;DHT22;12087;45.190;5.688;2023-09-08T17:11:17;28.90;84.30
23813;DHT22;12087;45.190;5.688;2023-09-08T17:16:40;28.80;85.00
23813;DHT22;12087;45.190;5.688;2023-09-08T17:22:02;28.70;85.80
23813;DHT22;12087;45.190;5.688;2023-09-08T17:27:26;28.60;86.90
23813;DHT22;12087;45.190;5.688;2023-09-08T17:32:48;28.50;88.00
23813;DHT22;12087;45.190;5.688;2023-09-08T17:38:10;28.40;88.50
23813;DHT22;12087;45.190;5.688;2023-09-08T17:43:34;28.20;89.30
23813;DHT22;12087;45.190;5.688;2023-09-08T17:48:56;28.10;89.40
23813;DHT22;12087;45.190;5.688;2023-09-08T17:54:18;27.90;90.10
23813;DHT22;12087;45.190;5.688;2023-09-08T17:59:42;27.80;90.50
23813;DHT22;12087;45.190;5.688;2023-09-08T18:05:05;27.70;90.90
23813;DHT22;12087;45.190;5.688;2023-09-08T18:10:27;27.70;90.70
23813;DHT22;12087;45.190;5.688;2023-09-08T18:15:56;27.60;90.80
23813;DHT22;12087;45.190;5.688;2023-09-08T18:21:18;27.50;91.30
23813;DHT22;12087;45.190;5.688;2023-09-08T18:26:41;27.50;90.70
23813;DHT22;12087;45.190;5.688;2023-09-08T18:32:05;27.40;90.80
23813;DHT22;12087;45.190;5.688;2023-09-08T18:37:27;27.40;90.90
23813;DHT22;12087;45.190;5.688;2023-09-08T18:42:49;27.30;90.80
23813;DHT22;12087;45.190;5.688;2023-09-08T18:48:13;27.10;91.10
23813;DHT22;12087;45.190;5.688;2023-09-08T18:53:35;27.00;90.90
23813;DHT22;12087;45.190;5.688;2023-09-08T18:59:29;27.00;91.10
23813;DHT22;12087;45.190;5.688;2023-09-08T19:04:53;26.90;91.40
23813;DHT22;12087;45.190;5.688;2023-09-08T19:10:25;26.80;91.30
23813;DHT22;12087;45.190;5.688;2023-09-08T19:15:48;26.70;92.20
23813;DHT22;12087;45.190;5.688;2023-09-08T19:21:12;26.60;92.40
23813;DHT22;12087;45.190;5.688;2023-09-08T19:26:34;26.60;91.60
23813;DHT22;12087;45.190;5.688;2023-09-08T19:32:05;26.50;92.30
23813;DHT22;12087;45.190;5.688;2023-09-08T19:37:32;26.40;92.60
23813;DHT22;12087;45.190;5.688;2023-09-08T19:42:54;26.30;93.10
23813;DHT22;12087;45.190;5.688;2023-09-08T19:48:17;26.30;92.70
23813;DHT22;12087;45.190;5.688;2023-09-08T19:53:40;26.10;93.20
23813;DHT22;12087;45.190;5.688;2023-09-08T19:59:03;26.10;94.10
23813;DHT22;12087;45.190;5.688;2023-09-08T20:04:25;26.10;94.70
23813;DHT22;12087;45.190;5.688;2023-09-08T20:09:49;26.00;94.60
23813;DHT22;12087;45.190;5.688;2023-09-08T20:15:11;25.90;95.40
23813;DHT22;12087;45.190;5.688;2023-09-08T20:20:34;25.80;95.60
23813;DHT22;12087;45.190;5.688;2023-09-08T20:25:57;25.60;95.30
23813;DHT22;12087;45.190;5.688;2023-09-08T20:31:20;25.50;95.60
23813;DHT22;12087;45.190;5.688;2023-09-08T20:36:42;25.40;95.90
23813;DHT22;12087;45.190;5.688;2023-09-08T20:42:13;25.30;95.90
23813;DHT22;12087;45.190;5.688;2023-09-08T20:47:36;25.20;95.50
23813;DHT22;12087;45.190;5.688;2023-09-08T20:52:58;25.10;96.50
23813;DHT22;12087;45.190;5.688;2023-09-08T21:04:48;24.90;96.70
23813;DHT22;12087;45.190;5.688;2023-09-08T21:10:11;24.90;96.90
23813;DHT22;12087;45.190;5.688;2023-09-08T21:15:33;24.80;97.20
23813;DHT22;12087;45.190;5.688;2023-09-08T21:20:57;24.70;97.70
23813;DHT22;12087;45.190;5.688;2023-09-08T21:26:20;24.70;97.40
23813;DHT22;12087;45.190;5.688;2023-09-08T21:31:42;24.70;97.60
23813;DHT22;12087;45.190;5.688;2023-09-08T21:37:07;24.60;98.40
23813;DHT22;12087;45.190;5.688;2023-09-08T21:42:30;24.50;98.50
23813;DHT22;12087;45.190;5.688;2023-09-08T21:47:52;24.40;98.90
23813;DHT22;12087;45.190;5.688;2023-09-08T21:53:16;24.30;99.40
23813;DHT22;12087;45.190;5.688;2023-09-08T21:58:38;24.20;99.20
23813;DHT22;12087;45.190;5.688;2023-09-08T22:04:00;24.10;99.90
23813;DHT22;12087;45.190;5.688;2023-09-08T22:09:24;24.10;99.90
23813;DHT22;12087;45.190;5.688;2023-09-08T22:14:48;24.10;99.90
23813;DHT22;12087;45.190;5.688;2023-09-08T22:20:11;24.00;99.90
23813;DHT22;12087;45.190;5.688;2023-09-08T22:25:36;23.90;99.90
23813;DHT22;12087;45.190;5.688;2023-09-08T22:30:58;23.70;99.90
23813;DHT22;12087;45.190;5.688;2023-09-08T22:36:20;23.70;99.90
23813;DHT22;12087;45.190;5.688;2023-09-08T22:41:44;23.70;99.90
23813;DHT22;12087;45.190;5.688;2023-09-08T22:47:07;23.70;99.90
23813;DHT22;12087;45.190;5.688;2023-09-08T22:52:31;23.60;99.90
23813;DHT22;12087;45.190;5.688;2023-09-08T22:57:54;23.60;99.90
23813;DHT22;12087;45.190;5.688;2023-09-08T23:03:17;23.50;99.90
23813;DHT22;12087;45.190;5.688;2023-09-08T23:08:39;23.40;99.90
23813;DHT22;12087;45.190;5.688;2023-09-08T23:14:03;23.40;99.90
23813;DHT22;12087;45.190;5.688;2023-09-08T23:19:25;23.30;99.90
23813;DHT22;12087;45.190;5.688;2023-09-08T23:24:47;23.30;99.90
23813;DHT22;12087;45.190;5.688;2023-09-08T23:30:12;23.20;99.90
23813;DHT22;12087;45.190;5.688;2023-09-08T23:35:34;23.20;99.90
23813;DHT22;12087;45.190;5.688;2023-09-08T23:40:56;23.20;99.90
23813;DHT22;12087;45.190;5.688;2023-09-08T23:46:20;23.20;99.90
23813;DHT22;12087;45.190;5.688;2023-09-08T23:51:42;23.10;99.90
23813;DHT22;12087;45.190;5.688;2023-09-08T23:57:05;23.10;99.90
